Time;durP1;ratioP1;P1;durP2;ratioP2;P2;SDS_P1;SDS_P2;PMS_P1;PMS_P2;Temp;Humidity;BMP_temperature;BMP_pressure;BME280_temperature;BME280_humidity;BME280_pressure;Samples;Min_cycle;Max_cycle;Signal;HPM_P1;HPM_P2
2022/07/28 00:00:35;;;;;;;6.43;3.38;;;24.80;93.00;;;;;;5050918;28;20432;-75
2022/07/28 00:03:01;;;;;;;9.30;3.80;;;24.80;92.80;;;;;;5031447;28;20045;-72
2022/07/28 00:05:27;;;;;;;8.75;3.47;;;24.80;93.00;;;;;;5032316;28;20095;-75
2022/07/28 00:07:53;;;;;;;8.55;3.30;;;24.80;93.10;;;;;;5033662;28;20464;-77
2022/07/28 00:10:19;;;;;;;10.55;4.03;;;24.60;93.30;;;;;;5037948;28;20024;-76
2022/07/28 00:12:44;;;;;;;10.85;4.03;;;24.50;90.80;;;;;;5053812;28;20025;-76
2022/07/28 00:15:11;;;;;;;7.22;4.10;;;;;;;;;;5052994;28;20090;-75
2022/07/28 00:17:37;;;;;;;7.18;3.70;;;23.90;82.00;;;;;;5053661;28;20033;-77
2022/07/28 00:20:04;;;;;;;17.13;4.38;;;23.90;85.00;;;;;;5053832;28;20021;-77
2022/07/28 00:22:30;;;;;;;7.72;4.30;;;23.80;91.00;;;;;;5053686;28;20506;-76
2022/07/28 00:24:56;;;;;;;9.30;4.38;;;23.60;93.80;;;;;;5054031;28;20039;-77
2022/07/28 00:27:22;;;;;;;10.85;5.43;;;23.40;96.40;;;;;;5053848;28;20023;-76
2022/07/28 00:29:48;;;;;;;10.00;5.10;;;23.30;98.90;;;;;;5054054;28;20033;-78
2022/07/28 00:32:13;;;;;;;11.32;4.93;;;23.10;99.90;;;;;;5053783;28;20029;-77
2022/07/28 00:34:39;;;;;;;11.40;5.43;;;23.10;99.90;;;;;;5053987;28;20469;-76
2022/07/28 00:37:05;;;;;;;9.10;4.30;;;23.00;99.90;;;;;;5053959;28;20041;-76
2022/07/28 00:39:31;;;;;;;10.35;5.43;;;23.00;99.90;;;;;;5053310;28;20037;-76
2022/07/28 00:41:57;;;;;;;15.15;5.35;;;22.90;99.90;;;;;;5052063;28;20109;-77
2022/07/28 00:44:22;;;;;;;11.15;5.30;;;22.70;99.90;;;;;;5052631;28;20036;-74
2022/07/28 00:46:49;;;;;;;9.05;4.88;;;22.60;99.90;;;;;;5053811;28;20075;-76
2022/07/28 00:49:15;;;;;;;10.60;5.53;;;22.50;99.90;;;;;;5053628;28;20067;-77
2022/07/28 00:51:40;;;;;;;10.70;5.00;;;22.50;99.90;;;;;;5054137;28;20057;-72
2022/07/28 00:54:07;;;;;;;12.70;5.30;;;22.50;99.90;;;;;;5053507;28;20075;-76
2022/07/28 00:56:33;;;;;;;9.18;5.45;;;22.50;99.90;;;;;;5053581;28;20047;-76
2022/07/28 00:58:59;;;;;;;10.05;5.60;;;22.50;99.90;;;;;;5053513;28;20089;-76
2022/07/28 01:01:25;;;;;;;10.45;5.43;;;22.60;99.90;;;;;;5053124;28;20021;-76
2022/07/28 01:03:55;;;;;;;12.00;5.50;;;22.50;99.90;;;;;;5053096;28;20068;-76
2022/07/28 01:06:30;;;;;;;8.30;4.88;;;22.40;99.90;;;;;;5035079;28;20391;-76
2022/07/28 01:09:24;;;;;;;9.77;4.95;;;22.40;99.90;;;;;;5053235;28;20120;-75
2022/07/28 01:12:04;;;;;;;8.15;5.35;;;22.30;99.90;;;;;;5035348;28;20454;-76
2022/07/28 01:14:36;;;;;;;6.95;4.80;;;22.20;99.90;;;;;;5052824;28;20025;-76
2022/07/28 01:17:16;;;;;;;;;;;22.70;99.90;;;;;;5053759;28;20387;-75
2022/07/28 01:19:49;;;;;;;9.45;4.93;;;22.30;99.90;;;;;;5053051;28;19919;-75
2022/07/28 01:22:21;;;;;;;7.25;5.03;;;22.30;99.90;;;;;;5053147;28;20032;-77
2022/07/28 01:25:15;;;;;;;12.77;5.65;;;22.30;99.90;;;;;;5049984;28;20029;-77
2022/07/28 01:28:20;;;;;;;8.93;4.60;;;22.30;99.90;;;;;;5045481;28;20029;-73
2022/07/28 01:30:50;;;;;;;10.10;5.43;;;22.30;99.90;;;;;;5035550;28;20029;-76
2022/07/28 01:33:40;;;;;;;8.93;5.15;;;22.20;99.90;;;;;;5031639;28;20036;-76
2022/07/28 01:36:10;;;;;;;11.10;5.40;;;22.20;99.90;;;;;;5039122;28;20036;-75
2022/07/28 01:38:38;;;;;;;7.68;5.20;;;22.20;99.90;;;;;;5031378;28;20040;-75
2022/07/28 01:41:09;;;;;;;9.15;5.75;;;22.20;99.90;;;;;;5050567;28;20055;-75
2022/07/28 01:43:38;;;;;;;9.60;5.00;;;22.20;99.90;;;;;;5047858;28;20033;-76
2022/07/28 01:46:05;;;;;;;9.48;4.68;;;22.20;99.90;;;;;;5048721;28;20474;-75
2022/07/28 01:48:33;;;;;;;9.80;4.88;;;22.20;99.90;;;;;;5052049;28;20378;-74
2022/07/28 01:51:01;;;;;;;9.02;4.65;;;22.10;99.90;;;;;;5051660;28;20047;-76
2022/07/28 01:53:30;;;;;;;7.95;5.18;;;22.10;99.90;;;;;;5051512;28;20032;-77
2022/07/28 01:55:58;;;;;;;7.93;5.03;;;22.20;99.90;;;;;;5047190;28;20028;-77
2022/07/28 01:58:25;;;;;;;8.88;4.47;;;22.10;99.90;;;;;;5042668;28;20439;-76
2022/07/28 02:00:52;;;;;;;11.88;4.80;;;22.10;99.90;;;;;;5044616;28;20040;-77
2022/07/28 02:03:20;;;;;;;8.05;5.10;;;22.10;99.90;;;;;;5042853;28;20107;-75
2022/07/28 02:05:49;;;;;;;6.70;4.63;;;22.10;99.90;;;;;;5044270;28;20475;-76
2022/07/28 02:08:18;;;;;;;11.27;4.97;;;22.10;99.90;;;;;;5043321;28;20112;-77
2022/07/28 02:11:38;;;;;;;8.57;4.95;;;22.10;99.90;;;;;;5041147;28;20025;-77
2022/07/28 02:13:32;;;;;;;8.93;4.97;;;22.10;99.90;;;;;;5044177;28;20029;-74
2022/07/28 02:16:01;;;;;;;8.75;4.63;;;22.00;99.90;;;;;;5045091;28;20018;-76
2022/07/28 02:18:28;;;;;;;9.32;4.53;;;22.00;99.90;;;;;;5043151;28;20028;-75
2022/07/28 02:20:54;;;;;;;10.27;4.95;;;22.00;99.90;;;;;;5050519;28;20067;-71
2022/07/28 02:23:22;;;;;;;10.98;5.18;;;22.00;99.90;;;;;;5047480;28;20064;-70
2022/07/28 02:25:50;;;;;;;7.80;4.55;;;22.00;99.90;;;;;;5048818;28;20115;-75
2022/07/28 02:28:20;;;;;;;7.45;4.57;;;22.40;99.90;;;;;;5044839;28;20078;-74
2022/07/28 02:30:54;;;;;;;9.40;4.72;;;22.00;99.90;;;;;;5039501;28;20013;-75
2022/07/28 02:33:22;;;;;;;10.80;4.18;;;22.50;99.90;;;;;;5034871;28;20110;-63
2022/07/28 02:35:53;;;;;;;8.55;4.57;;;22.00;99.90;;;;;;5034755;28;20013;-68
2022/07/28 02:38:28;;;;;;;9.43;4.13;;;22.00;99.90;;;;;;5034794;28;20041;-67
2022/07/28 02:40:58;;;;;;;9.10;5.43;;;22.00;99.90;;;;;;5034855;28;20029;-75
2022/07/28 02:43:27;;;;;;;9.30;4.70;;;22.00;99.90;;;;;;5034976;28;20091;-64
2022/07/28 02:45:56;;;;;;;7.78;5.00;;;21.90;99.90;;;;;;5034488;28;20025;-76
2022/07/28 02:48:26;;;;;;;10.80;5.43;;;22.00;99.90;;;;;;5034658;28;20068;-64
2022/07/28 02:50:55;;;;;;;9.23;5.18;;;22.00;99.90;;;;;;5036432;28;20030;-71
2022/07/28 02:53:22;;;;;;;9.25;4.80;;;21.40;99.90;;;;;;5034335;28;20544;-75
2022/07/28 02:55:50;;;;;;;8.77;5.28;;;21.80;99.90;;;;;;5034619;28;20025;-77
2022/07/28 02:58:21;;;;;;;11.00;5.75;;;22.00;99.90;;;;;;5034091;28;20137;-77
2022/07/28 03:00:49;;;;;;;8.82;4.78;;;21.90;99.90;;;;;;5034214;28;20108;-76
2022/07/28 03:03:17;;;;;;;7.97;4.78;;;21.90;99.90;;;;;;5034012;28;20045;-76
2022/07/28 03:05:44;;;;;;;9.07;4.40;;;21.90;99.90;;;;;;5043897;28;20032;-75
2022/07/28 03:08:11;;;;;;;9.35;4.72;;;21.80;99.90;;;;;;5050745;28;20025;-76
2022/07/28 03:10:37;;;;;;;8.20;5.25;;;21.80;99.90;;;;;;5044273;28;20029;-77
2022/07/28 03:13:08;;;;;;;7.90;4.72;;;21.80;99.90;;;;;;5033908;28;20037;-74
2022/07/28 03:15:35;;;;;;;8.63;4.60;;;21.80;99.90;;;;;;5033802;28;20052;-75
2022/07/28 03:18:02;;;;;;;10.65;4.82;;;21.90;99.90;;;;;;5033928;28;20032;-76
2022/07/28 03:20:28;;;;;;;8.15;4.93;;;21.80;99.90;;;;;;5033950;28;20025;-76
2022/07/28 03:22:54;;;;;;;9.70;4.28;;;21.90;99.90;;;;;;5033790;28;20033;-75
2022/07/28 03:25:33;;;;;;;11.25;4.85;;;21.90;99.90;;;;;;5034233;28;20025;-76
2022/07/28 03:28:01;;;;;;;13.15;5.65;;;21.80;99.90;;;;;;5033664;28;20025;-76
2022/07/28 03:30:31;;;;;;;12.77;5.32;;;21.60;99.90;;;;;;5033283;28;20041;-74
2022/07/28 03:33:01;;;;;;;7.72;4.55;;;21.60;99.90;;;;;;5037919;28;20476;-74
2022/07/28 03:35:30;;;;;;;10.80;5.35;;;21.60;99.90;;;;;;5033741;28;20030;-77
2022/07/28 03:38:06;;;;;;;8.13;4.97;;;21.60;99.90;;;;;;5033496;28;20091;-76
2022/07/28 03:40:32;;;;;;;9.40;5.60;;;21.60;99.90;;;;;;5033655;28;20115;-76
2022/07/28 03:43:06;;;;;;;11.05;5.60;;;21.60;99.90;;;;;;5033376;28;20021;-74
2022/07/28 03:45:33;;;;;;;10.15;5.30;;;21.60;99.90;;;;;;5032942;28;20105;-65
2022/07/28 03:48:00;;;;;;;9.75;6.10;;;22.20;99.90;;;;;;5033624;28;20076;-76
2022/07/28 03:50:31;;;;;;;22.17;6.28;;;21.70;99.90;;;;;;5034345;28;20032;-74
2022/07/28 03:52:58;;;;;;;8.65;4.88;;;21.50;99.90;;;;;;5033266;28;20076;-75
2022/07/28 03:55:25;;;;;;;7.97;4.88;;;21.50;99.90;;;;;;5033290;28;20037;-75
2022/07/28 03:57:51;;;;;;;10.68;5.30;;;20.20;99.90;;;;;;5033362;28;20079;-75
2022/07/28 04:00:18;;;;;;;8.70;5.03;;;21.60;99.90;;;;;;5033500;28;20037;-75
2022/07/28 04:02:44;;;;;;;10.45;5.30;;;21.60;99.90;;;;;;5031521;28;20053;-74
2022/07/28 04:05:11;;;;;;;18.02;6.05;;;21.60;99.90;;;;;;5029773;28;20048;-74
2022/07/28 04:07:38;;;;;;;10.65;5.55;;;21.90;99.90;;;;;;5031602;28;20033;-72
2022/07/28 04:10:06;;;;;;;12.85;5.53;;;21.60;99.90;;;;;;5034176;28;20053;-76
2022/07/28 04:12:50;;;;;;;10.00;5.57;;;21.60;99.90;;;;;;5033606;28;20037;-75
2022/07/28 04:15:17;;;;;;;11.27;5.75;;;21.50;99.90;;;;;;5030410;28;20025;-71
2022/07/28 04:17:44;;;;;;;9.25;4.78;;;21.60;99.90;;;;;;5031380;28;20044;-76
2022/07/28 04:20:11;;;;;;;12.65;6.13;;;21.50;99.90;;;;;;5037565;28;20009;-74
2022/07/28 04:22:37;;;;;;;10.00;4.85;;;21.50;99.90;;;;;;5053143;28;20028;-76
2022/07/28 04:25:04;;;;;;;12.13;5.63;;;21.40;99.90;;;;;;5053723;28;20021;-76
2022/07/28 04:27:30;;;;;;;10.30;5.60;;;19.40;99.90;;;;;;5052751;28;20380;-76
2022/07/28 04:29:55;;;;;;;11.45;6.30;;;21.50;99.90;;;;;;5053099;28;20029;-77
2022/07/28 04:32:21;;;;;;;10.25;5.72;;;21.40;99.90;;;;;;5053419;28;20029;-76
2022/07/28 04:34:48;;;;;;;7.90;5.47;;;21.40;99.90;;;;;;5052984;28;20032;-76
2022/07/28 04:37:14;;;;;;;10.25;5.90;;;21.70;99.90;;;;;;5052337;28;20064;-73
2022/07/28 04:39:40;;;;;;;11.93;6.55;;;21.50;99.90;;;;;;5053229;28;20114;-74
2022/07/28 04:42:06;;;;;;;12.32;6.05;;;21.50;99.90;;;;;;5052495;28;20104;-76
2022/07/28 04:44:33;;;;;;;13.70;5.95;;;21.50;99.90;;;;;;5053066;28;20086;-75
2022/07/28 04:46:58;;;;;;;9.27;5.65;;;21.40;99.90;;;;;;5053007;28;20146;-76
2022/07/28 04:49:24;;;;;;;8.43;5.68;;;21.50;99.90;;;;;;5053165;28;20162;-76
2022/07/28 04:51:51;;;;;;;13.70;6.40;;;21.50;99.90;;;;;;5053025;28;20025;-75
2022/07/28 04:54:17;;;;;;;8.93;5.68;;;21.50;99.90;;;;;;5053112;28;20078;-76
2022/07/28 04:56:44;;;;;;;14.15;5.93;;;21.50;99.90;;;;;;5053007;28;20214;-75
2022/07/28 04:59:09;;;;;;;10.68;5.97;;;21.60;99.90;;;;;;5052741;28;20036;-76
2022/07/28 05:01:37;;;;;;;16.10;6.38;;;21.50;99.90;;;;;;5052684;28;20032;-75
2022/07/28 05:04:07;;;;;;;8.05;5.60;;;21.80;99.90;;;;;;5052256;28;20049;-75
2022/07/28 05:06:34;;;;;;;12.43;6.10;;;21.50;99.90;;;;;;5052807;28;20029;-76
2022/07/28 05:09:00;;;;;;;10.10;5.53;;;21.50;99.90;;;;;;5052897;28;20029;-75
2022/07/28 05:11:26;;;;;;;11.38;5.63;;;21.50;99.90;;;;;;5052584;28;20083;-76
2022/07/28 05:13:52;;;;;;;10.25;5.38;;;21.40;99.90;;;;;;5052865;28;20349;-75
2022/07/28 05:16:19;;;;;;;9.90;5.95;;;21.50;99.90;;;;;;5052827;28;20040;-76
2022/07/28 05:18:45;;;;;;;11.45;5.70;;;21.30;99.90;;;;;;5053081;28;20033;-76
2022/07/28 05:21:10;;;;;;;13.20;5.57;;;21.40;99.90;;;;;;5052503;28;20017;-75
2022/07/28 05:23:36;;;;;;;9.57;5.80;;;21.90;99.90;;;;;;5053153;28;20036;-76
2022/07/28 05:26:03;;;;;;;13.15;5.55;;;21.50;99.90;;;;;;5052935;28;20403;-78
2022/07/28 05:28:29;;;;;;;9.25;4.97;;;21.50;99.90;;;;;;5052449;28;20025;-74
2022/07/28 05:30:55;;;;;;;9.75;5.93;;;21.60;99.90;;;;;;5052974;28;20021;-75
2022/07/28 05:33:21;;;;;;;9.90;5.65;;;21.50;99.90;;;;;;5052816;28;20112;-77
2022/07/28 05:35:53;;;;;;;11.10;5.22;;;21.40;99.90;;;;;;5052386;28;20025;-76
2022/07/28 05:38:19;;;;;;;9.07;5.43;;;21.40;99.90;;;;;;5052416;28;20037;-76
2022/07/28 05:40:47;;;;;;;10.52;5.82;;;21.50;99.90;;;;;;5052567;28;20024;-76
2022/07/28 05:43:13;;;;;;;9.27;5.40;;;21.50;99.90;;;;;;5052932;28;20027;-74
2022/07/28 05:45:38;;;;;;;10.15;5.65;;;21.50;99.90;;;;;;5052493;28;20656;-73
2022/07/28 05:48:04;;;;;;;11.27;5.63;;;21.50;99.90;;;;;;5052489;28;20029;-75
2022/07/28 05:50:30;;;;;;;11.35;5.43;;;21.70;99.90;;;;;;5052594;28;20472;-75
2022/07/28 05:52:56;;;;;;;9.48;5.07;;;21.60;99.90;;;;;;5051406;28;20032;-77
2022/07/28 05:55:22;;;;;;;10.55;5.30;;;21.80;99.90;;;;;;5052625;28;20021;-78
2022/07/28 05:57:48;;;;;;;10.80;5.50;;;21.70;99.90;;;;;;5052366;28;20039;-76
2022/07/28 06:00:17;;;;;;;11.63;5.88;;;21.80;99.90;;;;;;5052330;28;20068;-74
2022/07/28 06:02:47;;;;;;;8.73;4.78;;;21.80;99.90;;;;;;5050852;28;20041;-74
2022/07/28 06:05:16;;;;;;;9.88;5.57;;;21.90;99.90;;;;;;5050177;28;20064;-76
2022/07/28 06:07:42;;;;;;;12.13;5.47;;;22.00;99.90;;;;;;5052480;28;20396;-76
2022/07/28 06:10:09;;;;;;;8.38;5.15;;;22.00;99.90;;;;;;5057743;28;20028;-76
2022/07/28 06:12:41;;;;;;;8.77;4.85;;;22.00;99.90;;;;;;5052041;28;20092;-76
2022/07/28 06:15:13;;;;;;;9.80;5.43;;;22.10;99.90;;;;;;5051043;28;20069;-63
2022/07/28 06:17:39;;;;;;;;;;;22.60;99.90;;;;;;5041314;28;20041;-76
2022/07/28 06:20:05;;;;;;;9.98;5.18;;;22.20;99.90;;;;;;5051743;28;19905;-76
2022/07/28 06:22:43;;;;;;;11.13;5.65;;;22.30;99.90;;;;;;5051639;28;20025;-73
2022/07/28 06:25:21;;;;;;;9.40;5.60;;;22.20;99.90;;;;;;5051800;28;20021;-73
2022/07/28 06:27:49;;;;;;;9.27;4.85;;;22.40;99.90;;;;;;5051952;28;20356;-70
2022/07/28 06:30:15;;;;;;;9.10;5.38;;;22.50;99.90;;;;;;5051307;28;20491;-75
2022/07/28 06:32:42;;;;;;;9.40;5.38;;;22.50;99.90;;;;;;5051032;28;20364;-66
2022/07/28 06:35:09;;;;;;;8.85;5.60;;;22.40;99.90;;;;;;5050982;28;20464;-69
2022/07/28 06:37:35;;;;;;;13.05;5.38;;;22.40;99.90;;;;;;5050685;28;20033;-66
2022/07/28 06:40:01;;;;;;;9.07;5.28;;;22.40;99.90;;;;;;5049950;28;20029;-74
2022/07/28 06:42:27;;;;;;;10.82;5.72;;;22.60;99.90;;;;;;5051235;28;20025;-76
2022/07/28 06:44:53;;;;;;;10.73;5.28;;;22.40;99.90;;;;;;5050652;28;20082;-75
2022/07/28 06:47:19;;;;;;;7.40;4.88;;;22.50;99.90;;;;;;5050764;28;20421;-76
2022/07/28 06:49:45;;;;;;;11.82;5.32;;;22.70;99.90;;;;;;5050271;28;20380;-61
2022/07/28 06:52:11;;;;;;;12.55;5.30;;;22.70;99.90;;;;;;5048906;28;20028;-76
2022/07/28 06:54:37;;;;;;;9.07;5.55;;;22.70;99.90;;;;;;5048720;28;20052;-76
2022/07/28 06:57:03;;;;;;;14.75;7.30;;;22.90;99.90;;;;;;5046709;28;20037;-76
2022/07/28 06:59:29;;;;;;;9.88;6.45;;;22.80;99.90;;;;;;5033887;28;20045;-77
2022/07/28 07:02:00;;;;;;;12.48;6.55;;;22.90;99.90;;;;;;5032188;28;20031;-76
2022/07/28 07:04:29;;;;;;;10.52;6.10;;;23.10;99.90;;;;;;5032289;28;20029;-76
2022/07/28 07:06:54;;;;;;;10.63;6.05;;;22.90;99.90;;;;;;5034469;28;20037;-74
2022/07/28 07:09:20;;;;;;;13.40;6.25;;;23.10;99.90;;;;;;5033485;28;20080;-75
2022/07/28 07:11:46;;;;;;;10.52;5.50;;;23.10;99.90;;;;;;5039900;28;20025;-70
2022/07/28 07:14:12;;;;;;;11.10;6.22;;;23.10;99.90;;;;;;5042331;28;20559;-77
2022/07/28 07:16:38;;;;;;;11.43;5.85;;;23.30;99.90;;;;;;5042916;28;20059;-70
2022/07/28 07:19:04;;;;;;;14.13;5.72;;;23.30;99.90;;;;;;5034201;28;20045;-75
2022/07/28 07:21:29;;;;;;;11.27;6.93;;;23.60;99.90;;;;;;5048671;28;20024;-75
2022/07/28 07:23:57;;;;;;;13.57;6.55;;;23.40;99.90;;;;;;5040579;28;20550;-75
2022/07/28 07:26:22;;;;;;;10.45;5.80;;;23.50;99.90;;;;;;5054620;28;20028;-76
2022/07/28 07:28:49;;;;;;;10.52;6.57;;;23.50;99.90;;;;;;5053983;28;20407;-78
2022/07/28 07:31:15;;;;;;;16.40;7.15;;;23.50;99.90;;;;;;5054434;28;20021;-75
2022/07/28 07:33:40;;;;;;;10.63;5.93;;;23.50;99.90;;;;;;5053929;28;20036;-76
2022/07/28 07:36:06;;;;;;;13.95;6.10;;;24.20;99.90;;;;;;5053285;28;20498;-75
2022/07/28 07:38:32;;;;;;;11.57;6.22;;;23.50;99.90;;;;;;5054272;28;20037;-73
2022/07/28 07:40:59;;;;;;;16.65;6.93;;;23.60;99.90;;;;;;5053949;28;20021;-76
2022/07/28 07:43:25;;;;;;;13.63;6.28;;;23.90;99.90;;;;;;5054432;28;20464;-77
2022/07/28 07:45:51;;;;;;;8.55;5.68;;;24.10;99.90;;;;;;5054686;28;20021;-76
2022/07/28 07:48:17;;;;;;;9.80;6.40;;;23.80;99.90;;;;;;5054171;28;20514;-74
2022/07/28 07:50:43;;;;;;;11.32;5.40;;;23.80;99.90;;;;;;5054826;28;20045;-71
2022/07/28 07:53:09;;;;;;;9.82;6.43;;;23.80;99.90;;;;;;5054016;28;20056;-75
2022/07/28 07:55:35;;;;;;;10.48;6.50;;;23.70;99.90;;;;;;5054049;28;20098;-74
2022/07/28 07:58:01;;;;;;;23.42;5.32;;;23.70;99.90;;;;;;5053165;28;20036;-75
2022/07/28 08:00:27;;;;;;;9.85;5.85;;;23.80;99.90;;;;;;5050330;28;20022;-69
2022/07/28 08:02:53;;;;;;;8.50;5.93;;;23.90;99.90;;;;;;5043200;28;20640;-74
2022/07/28 08:05:19;;;;;;;13.05;6.20;;;24.00;99.90;;;;;;5053405;28;20086;-76
2022/07/28 08:07:47;;;;;;;9.82;6.30;;;24.00;99.90;;;;;;5053971;28;20025;-75
2022/07/28 08:10:13;;;;;;;13.25;5.70;;;24.10;99.90;;;;;;5053902;28;20112;-76
2022/07/28 08:12:38;;;;;;;13.27;5.90;;;24.10;99.90;;;;;;5054076;28;20356;-78
2022/07/28 08:15:05;;;;;;;13.27;5.53;;;24.30;99.90;;;;;;5053649;28;20551;-75
2022/07/28 08:17:31;;;;;;;11.40;5.63;;;24.40;99.90;;;;;;5051989;28;20025;-78
2022/07/28 08:19:57;;;;;;;11.90;5.63;;;24.20;99.90;;;;;;5053529;28;20029;-77
2022/07/28 08:22:23;;;;;;;8.18;4.97;;;24.20;99.90;;;;;;5053575;28;20021;-77
2022/07/28 08:24:49;;;;;;;9.80;5.18;;;24.20;99.90;;;;;;5053307;28;20036;-78
2022/07/28 08:27:15;;;;;;;9.75;5.38;;;24.50;99.90;;;;;;5053807;28;20100;-78
2022/07/28 08:29:41;;;;;;;11.02;6.25;;;24.50;99.90;;;;;;5053964;28;20029;-77
2022/07/28 08:32:07;;;;;;;9.75;5.68;;;24.40;99.90;;;;;;5053228;28;20028;-77
2022/07/28 08:34:34;;;;;;;12.80;6.22;;;24.40;99.90;;;;;;5052524;28;20040;-77
2022/07/28 08:37:01;;;;;;;12.40;4.47;;;24.40;99.90;;;;;;5053820;28;20025;-75
2022/07/28 08:39:28;;;;;;;8.88;4.70;;;24.50;99.90;;;;;;5052045;28;20044;-71
2022/07/28 08:42:06;;;;;;;9.45;4.95;;;24.40;99.90;;;;;;5051939;28;20036;-70
2022/07/28 08:45:02;;;;;;;8.60;5.57;;;24.30;99.90;;;;;;5052657;28;20404;-76
2022/07/28 08:47:34;;;;;;;9.10;5.35;;;24.30;99.90;;;;;;5029779;28;20040;-76
2022/07/28 08:50:00;;;;;;;11.57;5.63;;;24.20;99.90;;;;;;5030634;28;20164;-78
2022/07/28 08:52:32;;;;;;;11.55;5.63;;;24.10;99.90;;;;;;5031053;28;20031;-79
2022/07/28 08:55:01;;;;;;;13.98;5.90;;;24.80;99.90;;;;;;5030822;28;20029;-78
2022/07/28 08:57:42;;;;;;;7.78;4.85;;;24.30;99.90;;;;;;5029607;28;20083;-74
2022/07/28 09:00:11;;;;;;;8.95;4.60;;;24.30;99.90;;;;;;5030596;28;20025;-78
2022/07/28 09:02:41;;;;;;;10.77;4.65;;;24.30;99.90;;;;;;5029621;28;20045;-78
2022/07/28 09:05:08;;;;;;;14.30;5.90;;;24.30;99.90;;;;;;5030468;28;20041;-74
2022/07/28 09:07:36;;;;;;;9.20;5.30;;;24.40;99.90;;;;;;5028389;28;20117;-81
2022/07/28 09:10:06;;;;;;;9.60;5.55;;;24.40;99.90;;;;;;5030807;28;20049;-81
2022/07/28 09:12:33;;;;;;;12.90;6.35;;;24.40;99.90;;;;;;5031138;28;20025;-82
2022/07/28 09:15:12;;;;;;;12.68;5.95;;;24.40;99.90;;;;;;5029646;28;20486;-80
2022/07/28 09:17:39;;;;;;;9.18;5.38;;;24.50;99.90;;;;;;5029861;28;20046;-81
2022/07/28 09:20:06;;;;;;;12.40;6.00;;;24.50;99.90;;;;;;5024317;28;20040;-79
2022/07/28 09:22:33;;;;;;;8.65;5.25;;;24.60;99.90;;;;;;5031814;28;20033;-80
2022/07/28 09:25:01;;;;;;;12.73;6.65;;;24.80;99.90;;;;;;5048909;28;20192;-80
2022/07/28 09:27:26;;;;;;;9.88;6.13;;;24.60;99.90;;;;;;5037823;28;20387;-80
2022/07/28 09:29:59;;;;;;;10.50;5.03;;;24.60;99.90;;;;;;5047971;28;20029;-76
2022/07/28 09:32:26;;;;;;;9.80;5.63;;;24.80;99.90;;;;;;5052203;28;20042;-81
2022/07/28 09:34:52;;;;;;;12.77;5.28;;;24.80;99.90;;;;;;5052881;28;20051;-82
2022/07/28 09:37:24;;;;;;;12.02;5.43;;;25.00;99.90;;;;;;5035371;28;20041;-74
2022/07/28 09:39:51;;;;;;;10.82;6.03;;;25.20;99.90;;;;;;5053849;28;20479;-76
2022/07/28 09:42:18;;;;;;;10.80;5.00;;;25.30;99.90;;;;;;5054650;28;20021;-82
2022/07/28 09:45:00;;;;;;;30.67;6.05;;;25.40;99.90;;;;;;5056462;28;20059;-84
2022/07/28 09:47:30;;;;;;;9.18;5.45;;;24.70;99.90;;;;;;5055857;28;20032;-76
2022/07/28 09:49:56;;;;;;;13.18;6.13;;;25.30;99.90;;;;;;5056403;28;20108;-83
2022/07/28 09:52:32;;;;;;;13.13;5.43;;;24.60;99.90;;;;;;5053839;28;20115;-81
2022/07/28 09:55:00;;;;;;;13.52;5.85;;;;;;;;;;5053934;28;20025;-80
2022/07/28 09:57:30;;;;;;;11.02;5.35;;;25.90;96.30;;;;;;5053711;28;20497;-82
2022/07/28 09:59:56;;;;;;;7.88;5.18;;;25.90;96.20;;;;;;5053745;28;20088;-80
2022/07/28 10:02:30;;;;;;;11.82;6.60;;;26.50;97.40;;;;;;5053290;28;20060;-81
2022/07/28 10:04:58;;;;;;;11.55;6.50;;;26.80;95.40;;;;;;5052327;28;20060;-78
2022/07/28 10:07:27;;;;;;;8.80;5.50;;;27.10;93.00;;;;;;5052639;28;20375;-78
2022/07/28 10:10:10;;;;;;;9.20;4.90;;;27.10;90.40;;;;;;5052214;28;20452;-82
2022/07/28 10:12:37;;;;;;;16.30;7.65;;;27.40;90.50;;;;;;5051539;28;20033;-80
2022/07/28 10:17:59;;;;;;;8.88;5.22;;;27.30;90.20;;;;;;5052870;28;20068;-83
2022/07/28 10:20:26;;;;;;;9.60;4.95;;;27.30;86.70;;;;;;5052654;28;20017;-81
2022/07/28 10:23:01;;;;;;;7.13;4.20;;;27.20;86.50;;;;;;5052047;28;20495;-81
2022/07/28 10:25:31;;;;;;;10.27;5.22;;;27.50;89.60;;;;;;5053215;28;20028;-80
2022/07/28 10:27:59;;;;;;;11.15;6.05;;;27.00;83.70;;;;;;5053025;28;20052;-81
2022/07/28 10:30:32;;;;;;;12.40;5.63;;;26.80;85.00;;;;;;5053113;28;20037;-77
2022/07/28 10:33:01;;;;;;;12.70;5.20;;;27.00;89.00;;;;;;5052361;28;20495;-79
2022/07/28 10:35:28;;;;;;;10.32;4.90;;;27.10;89.40;;;;;;5051372;28;20032;-80
2022/07/28 10:38:07;;;;;;;17.27;7.80;;;27.00;87.80;;;;;;5052720;28;20036;-78
2022/07/28 10:40:44;;;;;;;17.63;5.07;;;27.00;88.40;;;;;;5056364;28;20029;-81
2022/07/28 10:43:10;;;;;;;12.80;5.82;;;27.10;86.40;;;;;;5057152;28;20025;-80
2022/07/28 10:45:39;;;;;;;9.30;4.40;;;27.20;86.60;;;;;;5056173;28;20029;-80
2022/07/28 10:48:06;;;;;;;13.63;5.53;;;27.30;86.70;;;;;;5054499;28;20033;-77
2022/07/28 10:50:34;;;;;;;7.10;4.57;;;27.40;85.70;;;;;;5054641;28;20029;-79
2022/07/28 10:53:08;;;;;;;8.48;4.63;;;27.50;85.80;;;;;;5034901;28;20039;-80
2022/07/28 10:55:51;;;;;;;9.85;5.13;;;27.50;95.40;;;;;;5055226;28;20040;-78
2022/07/28 10:58:28;;;;;;;6.88;4.57;;;27.60;86.70;;;;;;5055422;28;20041;-81
2022/07/28 11:00:54;;;;;;;9.70;4.65;;;27.60;83.80;;;;;;5054693;28;20100;-82
2022/07/28 11:03:36;;;;;;;11.18;5.70;;;;;;;;;;5054618;28;20060;-75
2022/07/28 11:06:23;;;;;;;;;;;28.00;99.90;;;;;;5053987;28;20026;-81
2022/07/28 11:08:51;;;;;;;8.93;4.82;;;;;;;;;;5044698;28;20393;-81
2022/07/28 11:11:43;;;;;;;8.30;4.97;;;27.80;81.10;;;;;;5036746;28;20418;-83
2022/07/28 11:14:24;;;;;;;10.98;5.15;;;27.80;82.30;;;;;;5051827;28;20519;-79
2022/07/28 11:17:14;;;;;;;12.70;4.63;;;28.10;83.50;;;;;;5050106;28;20442;-80
2022/07/28 11:19:43;;;;;;;12.73;4.85;;;28.10;81.60;;;;;;5052061;28;20276;-83
2022/07/28 11:22:20;;;;;;;8.88;4.72;;;28.20;80.20;;;;;;5053106;28;20040;-77
2022/07/28 11:25:01;;;;;;;7.45;4.65;;;28.10;81.60;;;;;;5052826;28;20032;-79
2022/07/28 11:27:39;;;;;;;7.95;4.45;;;28.20;80.30;;;;;;5033537;28;20044;-76
2022/07/28 11:32:59;;;;;;;7.53;4.53;;;28.10;78.50;;;;;;5048467;28;20037;-61
2022/07/28 11:35:52;;;;;;;6.53;4.32;;;28.10;77.60;;;;;;5046697;28;20033;-61
2022/07/28 11:38:18;;;;;;;11.35;4.75;;;28.20;77.00;;;;;;5043425;28;20406;-76
2022/07/28 11:40:45;;;;;;;9.52;4.80;;;;;;;;;;5001755;28;20500;-79
2022/07/28 11:43:23;;;;;;;8.20;4.63;;;28.30;75.20;;;;;;5036354;28;20369;-79
2022/07/28 11:46:10;;;;;;;5.72;4.43;;;;;;;;;;5041611;28;20031;-80
2022/07/28 11:48:39;;;;;;;10.65;4.60;;;;;;;;;;5052502;28;20415;-77
2022/07/28 11:51:05;;;;;;;8.60;4.55;;;28.70;97.90;;;;;;5053198;28;20029;-75
2022/07/28 11:53:34;;;;;;;10.10;5.10;;;28.90;90.50;;;;;;5051050;28;20035;-71
2022/07/28 11:56:04;;;;;;;8.13;4.47;;;28.80;92.10;;;;;;5043773;28;20493;-73
2022/07/28 11:58:33;;;;;;;6.05;4.60;;;29.30;93.80;;;;;;5054283;28;20096;-78
2022/07/28 12:01:29;;;;;;;9.48;4.32;;;;;;;;;;5053579;28;20037;-77
2022/07/28 12:03:59;;;;;;;5.85;4.15;;;;;;;;;;4971513;28;20059;-72
2022/07/28 12:06:37;;;;;;;10.00;4.20;;;29.40;94.70;;;;;;4971636;28;20035;-75
2022/07/28 12:09:05;;;;;;;7.88;4.25;;;;;;;;;;4967908;28;20034;-77
2022/07/28 12:11:36;;;;;;;7.47;5.05;;;29.20;95.40;;;;;;4971146;28;20031;-79
2022/07/28 12:14:09;;;;;;;;;;;29.70;93.10;;;;;;4973157;28;20129;-80
2022/07/28 12:16:36;;;;;;;6.35;4.22;;;;;;;;;;4973031;28;19917;-74
2022/07/28 12:19:03;;;;;;;7.88;4.45;;;29.70;82.20;;;;;;4972705;28;20138;-77
2022/07/28 12:21:36;;;;;;;10.48;5.22;;;29.90;87.30;;;;;;4972799;28;20045;-80
2022/07/28 12:24:03;;;;;;;5.80;3.45;;;29.60;91.70;;;;;;4972481;28;20106;-70
2022/07/28 12:26:30;;;;;;;7.45;4.22;;;29.60;90.80;;;;;;4973030;28;20038;-76
2022/07/28 12:28:57;;;;;;;5.45;4.00;;;29.90;88.70;;;;;;4989894;28;20022;-72
2022/07/28 12:31:29;;;;;;;9.02;4.30;;;29.90;88.00;;;;;;4985411;28;20030;-76
2022/07/28 12:34:05;;;;;;;8.32;4.25;;;29.90;89.30;;;;;;4972356;28;20046;-75
2022/07/28 12:36:32;;;;;;;5.22;3.78;;;;;;;;;;4971324;28;20042;-74
2022/07/28 12:39:00;;;;;;;5.97;4.18;;;29.90;92.30;;;;;;4970534;28;20041;-62
2022/07/28 12:41:33;;;;;;;9.98;4.95;;;;;;;;;;5045862;28;20045;-72
2022/07/28 12:44:00;;;;;;;6.57;4.20;;;;;;;;;;5049100;28;20029;-73
2022/07/28 12:46:27;;;;;;;6.18;4.45;;;30.20;86.30;;;;;;5051548;28;20035;-76
2022/07/28 12:48:56;;;;;;;8.23;3.88;;;;;;;;;;5043467;28;20108;-76
2022/07/28 12:51:48;;;;;;;6.63;3.95;;;30.50;86.50;;;;;;5037023;28;20035;-77
2022/07/28 12:54:15;;;;;;;5.40;3.58;;;;;;;;;;5046778;28;20043;-78
2022/07/28 12:56:48;;;;;;;6.88;3.92;;;;;;;;;;5052644;28;20025;-75
2022/07/28 12:59:17;;;;;;;8.77;3.85;;;29.60;90.60;;;;;;5051407;28;20043;-69
2022/07/28 13:01:54;;;;;;;8.15;3.55;;;29.80;90.20;;;;;;5050528;28;20027;-72
2022/07/28 13:04:42;;;;;;;5.43;3.33;;;29.80;88.80;;;;;;5048572;28;20435;-72